Time;durP1;ratioP1;P1;durP2;ratioP2;P2;SDS_P1;SDS_P2;PMS_P1;PMS_P2;Temp;Humidity;BMP_temperature;BMP_pressure;BME280_temperature;BME280_humidity;BME280_pressure;Samples;Min_cycle;Max_cycle;Signal;HPM_P1;HPM_P2
2022/01/16 00:00:16;;;;;;;6.50;2.28;;;20.50;46.20;;;;;;4975396;28;20046;-83
2022/01/16 00:05:31;;;;;;;5.43;2.75;;;20.40;46.20;;;;;;4974758;28;20060;-83
2022/01/16 00:07:57;;;;;;;4.72;2.58;;;20.40;46.20;;;;;;4975156;28;20125;-83
2022/01/16 00:10:24;;;;;;;4.43;2.78;;;20.40;46.20;;;;;;4974982;28;20429;-82
2022/01/16 00:12:52;;;;;;;4.90;2.83;;;20.40;46.20;;;;;;4975058;28;20133;-83
2022/01/16 00:15:20;;;;;;;4.80;2.70;;;20.40;46.50;;;;;;4975461;28;20406;-83
2022/01/16 00:18:22;;;;;;;5.68;2.92;;;20.40;46.30;;;;;;4991022;28;20054;-83
2022/01/16 00:20:38;;;;;;;5.28;3.17;;;21.40;46.90;;;;;;4970404;28;20050;-83
2022/01/16 00:23:06;;;;;;;5.30;3.30;;;20.30;46.30;;;;;;4975092;28;20050;-83
2022/01/16 00:25:31;;;;;;;5.30;3.45;;;20.30;46.30;;;;;;4974242;28;20061;-82
2022/01/16 00:27:57;;;;;;;4.75;3.22;;;21.40;47.30;;;;;;4974627;28;20046;-83
2022/01/16 00:30:22;;;;;;;5.03;2.88;;;20.30;46.30;;;;;;4991146;28;20042;-83
2022/01/16 00:32:48;;;;;;;4.75;2.70;;;20.30;46.30;;;;;;4974278;28;20165;-82
2022/01/16 00:35:14;;;;;;;5.13;2.80;;;20.20;46.30;;;;;;4975013;28;20054;-82
2022/01/16 00:37:40;;;;;;;4.45;2.45;;;20.30;46.40;;;;;;4990248;28;20576;-82
2022/01/16 00:40:06;;;;;;;5.63;3.08;;;20.20;46.40;;;;;;4974072;28;20061;-82
2022/01/16 00:42:31;;;;;;;4.45;2.60;;;20.20;46.40;;;;;;4975080;28;20050;-82
2022/01/16 00:44:57;;;;;;;4.70;2.72;;;21.50;47.10;;;;;;4974616;28;20054;-82
2022/01/16 00:47:22;;;;;;;4.50;2.50;;;20.20;46.40;;;;;;4962465;28;20054;-82
2022/01/16 00:49:48;;;;;;;5.97;2.80;;;20.20;46.40;;;;;;4974361;28;20054;-83
2022/01/16 00:52:14;;;;;;;4.43;2.78;;;20.20;46.50;;;;;;4974373;28;20076;-82
2022/01/16 00:54:39;;;;;;;5.22;3.10;;;20.20;46.50;;;;;;4974089;28;20116;-82
2022/01/16 00:57:05;;;;;;;5.40;3.03;;;20.20;46.50;;;;;;4974379;28;20046;-82
2022/01/16 00:59:30;;;;;;;5.18;2.70;;;20.20;46.50;;;;;;4974175;28;20046;-82
2022/01/16 01:01:56;;;;;;;5.57;2.90;;;20.20;46.50;;;;;;4973944;28;20049;-82
2022/01/16 01:04:22;;;;;;;5.63;2.85;;;20.20;46.50;;;;;;4974061;28;20043;-82
2022/01/16 01:06:49;;;;;;;5.18;2.88;;;20.20;46.50;;;;;;4973973;28;20046;-82
2022/01/16 01:09:15;;;;;;;5.45;2.90;;;20.20;46.60;;;;;;4988686;28;20049;-82
2022/01/16 01:11:43;;;;;;;5.18;3.25;;;20.20;46.50;;;;;;4973541;28;20082;-82
2022/01/16 01:14:21;;;;;;;5.20;2.85;;;20.20;46.60;;;;;;4973634;28;20136;-82
2022/01/16 01:16:54;;;;;;;5.28;3.10;;;20.20;46.60;;;;;;4973481;28;20049;-83
2022/01/16 01:19:28;;;;;;;5.85;3.10;;;20.20;46.60;;;;;;4974202;28;20097;-82
2022/01/16 01:21:53;;;;;;;5.93;3.15;;;20.20;46.60;;;;;;4973651;28;20058;-82
2022/01/16 01:24:19;;;;;;;6.00;3.65;;;20.20;46.60;;;;;;4974205;28;20137;-82
2022/01/16 01:26:54;;;;;;;5.15;2.95;;;20.10;46.50;;;;;;4989958;28;20092;-82
2022/01/16 01:29:21;;;;;;;4.68;2.90;;;20.20;46.60;;;;;;4972939;28;20089;-82
2022/01/16 01:31:47;;;;;;;4.43;2.45;;;20.10;46.50;;;;;;4973317;28;20497;-82
2022/01/16 01:34:12;;;;;;;4.50;2.67;;;20.20;46.60;;;;;;4971958;28;20082;-82
2022/01/16 01:36:38;;;;;;;6.10;3.20;;;20.10;46.50;;;;;;4989042;28;20077;-83
2022/01/16 01:39:03;;;;;;;4.82;3.03;;;20.10;46.50;;;;;;4973401;28;20486;-83
2022/01/16 01:41:29;;;;;;;4.97;3.10;;;20.10;46.50;;;;;;4973342;28;20116;-83
2022/01/16 01:52:08;;;;;;;5.32;2.90;;;20.10;46.50;;;;;;4972734;28;20046;-82
2022/01/16 01:54:33;;;;;;;5.70;3.30;;;21.30;47.20;;;;;;4989544;28;20111;-82
2022/01/16 01:56:59;;;;;;;5.05;2.92;;;20.10;46.60;;;;;;4988953;28;20046;-83
2022/01/16 01:59:25;;;;;;;4.90;3.10;;;20.10;47.20;;;;;;4973044;28;20126;-82
2022/01/16 02:01:50;;;;;;;5.53;3.60;;;20.10;46.60;;;;;;4973214;28;20601;-82
2022/01/16 02:04:16;;;;;;;5.57;3.30;;;20.00;46.50;;;;;;4972547;28;20050;-83
2022/01/16 02:06:41;;;;;;;5.70;3.45;;;20.00;46.50;;;;;;4973065;28;20549;-83
2022/01/16 02:09:07;;;;;;;6.15;3.50;;;20.90;47.00;;;;;;4972862;28;20458;-82
2022/01/16 02:11:33;;;;;;;5.72;3.47;;;20.00;46.50;;;;;;4972255;28;20046;-83
2022/01/16 02:34:29;;;;;;;5.75;3.53;;;20.00;46.60;;;;;;4972108;28;20566;-83
2022/01/16 02:36:34;;;;;;;6.13;3.45;;;20.00;46.70;;;;;;4972398;28;20782;-82
2022/01/16 02:39:07;;;;;;;5.00;3.20;;;20.00;46.70;;;;;;4972243;28;20049;-82
2022/01/16 02:41:32;;;;;;;5.07;3.30;;;20.00;46.70;;;;;;4972566;28;20046;-82
2022/01/16 02:43:58;;;;;;;4.80;3.08;;;20.00;46.70;;;;;;4988611;28;20057;-83
2022/01/16 02:48:49;;;;;;;6.40;3.75;;;20.00;46.70;;;;;;4958563;28;20086;-82
2022/01/16 02:51:19;;;;;;;5.30;3.60;;;20.00;46.70;;;;;;4972703;28;20042;-83
2022/01/16 02:53:45;;;;;;;5.43;3.33;;;20.00;46.70;;;;;;4972459;28;20065;-82
2022/01/16 02:56:12;;;;;;;5.13;3.20;;;20.00;46.70;;;;;;4972568;28;20502;-83
2022/01/16 02:58:38;;;;;;;5.35;3.38;;;20.00;46.70;;;;;;4972597;28;20839;-83
2022/01/16 03:01:03;;;;;;;5.95;3.45;;;20.00;46.70;;;;;;4987433;28;20053;-83
2022/01/16 03:03:29;;;;;;;5.97;3.60;;;20.00;46.60;;;;;;4960150;28;20066;-82
2022/01/16 03:05:54;;;;;;;5.32;3.58;;;20.00;46.70;;;;;;4972169;28;20108;-83
2022/01/16 03:08:20;;;;;;;5.78;3.22;;;20.00;46.70;;;;;;4971474;28;20049;-82
2022/01/16 03:13:31;;;;;;;5.65;3.38;;;20.00;46.60;;;;;;4972182;28;20050;-83
2022/01/16 03:15:56;;;;;;;5.82;3.40;;;20.00;46.70;;;;;;4971303;28;20042;-82
2022/01/16 03:23:33;;;;;;;5.38;3.30;;;21.30;47.30;;;;;;4971814;28;20046;-82
2022/01/16 03:25:59;;;;;;;4.90;3.05;;;20.00;46.70;;;;;;4961762;28;20529;-82
2022/01/16 03:28:27;;;;;;;5.82;3.88;;;20.00;46.70;;;;;;4971113;28;20082;-83
2022/01/16 03:30:54;;;;;;;4.60;3.00;;;20.00;46.70;;;;;;4972213;28;20497;-83
2022/01/16 03:33:20;;;;;;;5.22;3.10;;;20.00;46.70;;;;;;4971860;28;20042;-83
2022/01/16 03:35:46;;;;;;;5.78;3.60;;;20.00;46.70;;;;;;4971409;28;20121;-83
2022/01/16 03:38:12;;;;;;;4.70;2.67;;;20.10;46.70;;;;;;4972359;28;20058;-83
2022/01/16 03:40:37;;;;;;;5.32;3.25;;;20.10;46.70;;;;;;4988081;28;20056;-83
2022/01/16 03:43:11;;;;;;;5.55;3.25;;;20.10;46.70;;;;;;4971716;28;20769;-83
2022/01/16 03:45:37;;;;;;;5.97;3.25;;;20.10;46.70;;;;;;4972134;28;20050;-83
2022/01/16 03:48:03;;;;;;;5.85;3.47;;;20.10;46.70;;;;;;4971206;28;20052;-82
2022/01/16 03:50:29;;;;;;;6.22;3.63;;;20.10;46.70;;;;;;4954801;28;20162;-83
2022/01/16 03:52:54;;;;;;;5.53;2.90;;;21.40;47.40;;;;;;4971644;28;20161;-83
2022/01/16 03:55:20;;;;;;;5.78;3.47;;;20.10;46.70;;;;;;4971758;28;20043;-83
2022/01/16 03:57:45;;;;;;;5.43;3.40;;;20.20;46.80;;;;;;4971547;28;20105;-82
2022/01/16 04:00:11;;;;;;;5.78;3.33;;;20.10;46.70;;;;;;4987897;28;20605;-82
2022/01/16 04:02:37;;;;;;;5.53;3.10;;;20.10;46.70;;;;;;4989146;28;20050;-83
2022/01/16 04:05:03;;;;;;;5.10;2.85;;;20.10;47.40;;;;;;4971510;28;20137;-83
2022/01/16 04:07:35;;;;;;;5.25;3.22;;;20.10;46.70;;;;;;4971531;28;20518;-82
2022/01/16 04:10:01;;;;;;;5.47;3.47;;;20.10;46.70;;;;;;4971734;28;20046;-83
2022/01/16 04:12:27;;;;;;;5.18;3.10;;;20.10;46.60;;;;;;4969873;28;20065;-83
2022/01/16 04:17:19;;;;;;;4.90;3.13;;;20.10;46.60;;;;;;4975388;28;20568;-82
2022/01/16 04:19:45;;;;;;;6.10;3.30;;;20.10;46.60;;;;;;4974785;28;20081;-82
2022/01/16 04:22:11;;;;;;;5.65;3.33;;;20.10;46.70;;;;;;4991611;28;20077;-83
2022/01/16 04:24:36;;;;;;;4.90;2.90;;;20.10;46.70;;;;;;4974914;28;20069;-82
2022/01/16 04:27:02;;;;;;;5.90;3.20;;;20.10;46.60;;;;;;4991913;28;20065;-83
2022/01/16 04:29:28;;;;;;;5.45;3.25;;;20.10;46.60;;;;;;4977753;28;20058;-83
2022/01/16 04:31:53;;;;;;;5.20;3.38;;;21.20;47.20;;;;;;4974237;28;20072;-83
2022/01/16 04:34:19;;;;;;;5.75;3.47;;;20.10;46.60;;;;;;4974378;28;20066;-82
2022/01/16 04:36:44;;;;;;;7.03;3.88;;;20.10;46.60;;;;;;4974391;28;20050;-83
2022/01/16 04:39:17;;;;;;;5.75;3.38;;;20.10;46.70;;;;;;4973957;28;20112;-82
2022/01/16 04:44:27;;;;;;;5.45;3.28;;;20.10;46.60;;;;;;4973686;28;19928;-83
2022/01/16 04:46:53;;;;;;;6.47;3.60;;;20.10;46.60;;;;;;4973418;28;20046;-83
2022/01/16 04:49:18;;;;;;;5.47;3.47;;;20.10;46.60;;;;;;4974598;28;20453;-82
2022/01/16 04:51:44;;;;;;;5.50;3.08;;;20.10;46.60;;;;;;4974361;28;20148;-83
2022/01/16 04:54:10;;;;;;;5.25;3.17;;;20.10;46.60;;;;;;4974247;28;20049;-83
2022/01/16 04:56:35;;;;;;;6.07;3.15;;;20.20;46.60;;;;;;4974738;28;20494;-82
2022/01/16 04:59:01;;;;;;;5.38;3.35;;;20.10;46.50;;;;;;4974598;28;20473;-83
2022/01/16 05:01:26;;;;;;;5.72;3.28;;;20.20;46.60;;;;;;4976018;28;20418;-83
2022/01/16 05:03:52;;;;;;;6.03;4.00;;;20.10;46.50;;;;;;4974139;28;20062;-83
2022/01/16 05:06:18;;;;;;;5.18;2.80;;;20.10;46.50;;;;;;4956775;28;20042;-83
2022/01/16 05:08:43;;;;;;;5.13;3.28;;;20.10;46.50;;;;;;4973742;28;20461;-82
2022/01/16 05:11:10;;;;;;;5.75;3.45;;;20.20;46.50;;;;;;4973999;28;20058;-83
2022/01/16 05:18:46;;;;;;;6.07;3.22;;;20.10;46.50;;;;;;4973760;28;20058;-83
2022/01/16 05:21:11;;;;;;;6.03;3.60;;;20.20;46.60;;;;;;4973614;28;20050;-83
2022/01/16 05:23:37;;;;;;;6.30;3.65;;;20.10;46.50;;;;;;4973642;28;20133;-83
2022/01/16 05:26:04;;;;;;;5.50;3.45;;;20.10;46.50;;;;;;4973894;28;20046;-83
2022/01/16 05:28:29;;;;;;;5.95;3.33;;;20.10;46.50;;;;;;4971120;28;20057;-83
2022/01/16 05:30:55;;;;;;;5.45;3.00;;;20.20;46.60;;;;;;4973573;28;20109;-83
2022/01/16 05:33:20;;;;;;;5.65;3.60;;;20.10;46.50;;;;;;4973716;28;20153;-83
2022/01/16 05:35:46;;;;;;;5.82;3.25;;;20.10;46.60;;;;;;4972970;28;20049;-83
2022/01/16 05:38:12;;;;;;;5.05;3.15;;;20.10;46.60;;;;;;4939124;28;20092;-83
2022/01/16 05:40:37;;;;;;;6.28;3.65;;;20.20;46.70;;;;;;4973386;28;20054;-83
2022/01/16 05:43:03;;;;;;;5.70;3.30;;;20.20;46.70;;;;;;4975834;28;20417;-83
2022/01/16 05:45:29;;;;;;;5.50;3.28;;;20.20;46.70;;;;;;4973582;28;20075;-83
2022/01/16 05:47:54;;;;;;;5.57;3.47;;;20.10;46.60;;;;;;4973252;28;20509;-83
2022/01/16 05:50:20;;;;;;;5.95;3.45;;;20.20;46.60;;;;;;4973063;28;20100;-83
2022/01/16 05:52:46;;;;;;;6.28;3.38;;;20.20;46.70;;;;;;4973182;28;20077;-83
2022/01/16 05:55:11;;;;;;;6.20;3.45;;;20.20;46.70;;;;;;4973091;28;20046;-83
2022/01/16 05:57:37;;;;;;;5.70;3.47;;;20.20;46.70;;;;;;4973022;28;20042;-83
2022/01/16 06:00:04;;;;;;;5.40;3.25;;;20.20;46.60;;;;;;4973282;28;20052;-83
2022/01/16 06:02:29;;;;;;;5.50;3.40;;;20.20;46.60;;;;;;4959036;28;20059;-82
2022/01/16 06:04:55;;;;;;;5.22;3.17;;;20.20;46.70;;;;;;4960855;28;20038;-82
2022/01/16 06:07:20;;;;;;;5.18;2.97;;;20.30;46.70;;;;;;4973534;28;20053;-83
2022/01/16 06:09:46;;;;;;;6.70;3.90;;;20.30;46.70;;;;;;4972748;28;20406;-83
2022/01/16 06:12:11;;;;;;;5.35;3.33;;;20.30;46.70;;;;;;4972616;28;20050;-83
2022/01/16 06:14:37;;;;;;;5.65;3.22;;;20.30;46.70;;;;;;4973200;28;20041;-82
2022/01/16 06:17:03;;;;;;;5.45;3.28;;;20.30;46.70;;;;;;4972718;28;20092;-82
2022/01/16 06:19:28;;;;;;;5.10;3.03;;;20.30;46.70;;;;;;4972925;28;20765;-83
2022/01/16 06:21:54;;;;;;;5.50;3.25;;;20.30;46.70;;;;;;4972917;28;20046;-83
2022/01/16 06:24:19;;;;;;;5.32;3.25;;;20.30;46.60;;;;;;4970992;28;20050;-83
2022/01/16 06:26:45;;;;;;;5.32;3.15;;;20.30;46.60;;;;;;4972849;28;20050;-82
2022/01/16 06:29:11;;;;;;;5.95;3.47;;;20.30;46.60;;;;;;4972643;28;20522;-83
2022/01/16 06:31:36;;;;;;;6.97;4.00;;;20.40;46.70;;;;;;4950908;28;20047;-83
2022/01/16 06:34:04;;;;;;;5.78;3.60;;;20.40;46.70;;;;;;4945337;28;20137;-83
2022/01/16 06:36:30;;;;;;;5.13;2.90;;;20.40;46.70;;;;;;4973863;28;20095;-82
2022/01/16 06:38:56;;;;;;;5.90;3.58;;;21.50;47.30;;;;;;4942588;28;20055;-83
2022/01/16 06:41:22;;;;;;;7.28;3.40;;;20.40;46.60;;;;;;4936939;28;20055;-82
2022/01/16 06:43:47;;;;;;;5.60;3.05;;;20.40;46.70;;;;;;4952686;28;20051;-83
2022/01/16 06:46:13;;;;;;;6.28;3.60;;;20.40;46.60;;;;;;4952855;28;20074;-83
2022/01/16 06:48:40;;;;;;;5.70;3.50;;;20.40;47.30;;;;;;4952792;28;20101;-83
2022/01/16 06:51:06;;;;;;;6.28;3.22;;;20.40;46.60;;;;;;4953043;28;20105;-82
2022/01/16 06:53:31;;;;;;;5.85;3.30;;;20.40;46.60;;;;;;4952924;28;20561;-83
2022/01/16 06:55:57;;;;;;;5.28;3.55;;;20.50;46.70;;;;;;4953222;28;20086;-82
2022/01/16 06:58:23;;;;;;;5.38;3.47;;;20.50;46.60;;;;;;4947355;28;20172;-83
2022/01/16 07:00:48;;;;;;;6.03;3.30;;;20.50;46.70;;;;;;4934673;28;20106;-83
2022/01/16 07:03:14;;;;;;;6.82;3.42;;;20.50;46.60;;;;;;4948814;28;20059;-82
2022/01/16 07:05:41;;;;;;;5.38;3.13;;;20.50;46.60;;;;;;4921615;29;20055;-83
2022/01/16 07:08:06;;;;;;;6.22;3.38;;;20.50;46.60;;;;;;4933327;29;20082;-83
2022/01/16 07:10:32;;;;;;;5.55;3.45;;;20.50;46.50;;;;;;4950172;28;20463;-83
2022/01/16 07:12:58;;;;;;;6.63;3.83;;;20.50;46.50;;;;;;4952886;28;20039;-83
2022/01/16 07:15:23;;;;;;;5.57;3.60;;;20.50;46.50;;;;;;4952686;28;20069;-83
2022/01/16 07:17:49;;;;;;;7.00;4.10;;;20.50;46.50;;;;;;4575007;28;10009500;-83
2022/01/16 07:20:15;;;;;;;6.47;3.65;;;20.50;46.50;;;;;;4953282;28;20639;-83
2022/01/16 07:22:41;;;;;;;5.38;3.13;;;20.50;46.50;;;;;;4952564;28;20490;-82
2022/01/16 07:25:07;;;;;;;5.55;3.42;;;20.50;46.50;;;;;;4953095;28;20047;-82
2022/01/16 07:27:33;;;;;;;6.57;3.35;;;20.50;46.50;;;;;;4952579;28;20122;-83
2022/01/16 07:29:59;;;;;;;5.15;3.10;;;20.50;46.50;;;;;;4953071;28;20368;-83
2022/01/16 07:32:24;;;;;;;5.20;3.03;;;20.60;46.50;;;;;;4946275;29;20055;-83
2022/01/16 07:34:50;;;;;;;5.82;3.15;;;20.50;46.50;;;;;;4933420;29;20054;-83
2022/01/16 07:37:15;;;;;;;5.72;3.40;;;20.60;46.50;;;;;;4932553;29;20059;-82
2022/01/16 07:39:41;;;;;;;5.88;3.28;;;20.60;46.50;;;;;;4933777;29;20051;-83
2022/01/16 07:42:07;;;;;;;6.70;3.67;;;20.60;46.40;;;;;;4933376;29;20455;-83
2022/01/16 07:44:32;;;;;;;6.28;3.45;;;20.60;46.40;;;;;;4917747;29;20055;-83
2022/01/16 07:46:58;;;;;;;5.53;3.33;;;20.60;46.50;;;;;;4935658;29;20049;-83
2022/01/16 07:49:24;;;;;;;5.35;3.25;;;20.20;46.20;;;;;;4949843;28;20046;-83
2022/01/16 07:51:49;;;;;;;6.65;3.80;;;20.60;46.40;;;;;;4933915;29;20063;-83
2022/01/16 07:54:15;;;;;;;4.88;2.92;;;20.60;46.40;;;;;;4936968;29;20055;-82
2022/01/16 07:56:40;;;;;;;6.20;3.58;;;20.60;46.40;;;;;;4968693;28;20035;-83
2022/01/16 07:59:06;;;;;;;5.78;3.47;;;20.60;46.40;;;;;;4938677;28;20063;-83
2022/01/16 08:01:31;;;;;;;5.25;2.97;;;20.60;46.30;;;;;;4937016;29;20138;-83
2022/01/16 08:03:57;;;;;;;4.72;2.88;;;20.60;46.40;;;;;;4981536;28;20054;-83
2022/01/16 08:06:22;;;;;;;5.32;3.10;;;20.60;46.30;;;;;;4975153;28;20075;-83
2022/01/16 08:08:48;;;;;;;6.32;3.30;;;20.60;46.30;;;;;;4975275;28;20046;-83
2022/01/16 08:11:13;;;;;;;5.78;3.88;;;20.60;46.30;;;;;;4953872;28;20042;-83
2022/01/16 08:13:39;;;;;;;5.43;2.88;;;20.60;46.30;;;;;;4952700;28;20495;-83
2022/01/16 08:16:05;;;;;;;5.43;3.10;;;20.60;46.30;;;;;;4955152;28;20065;-83
2022/01/16 08:18:31;;;;;;;5.90;3.50;;;20.60;46.30;;;;;;4952157;28;20074;-83
2022/01/16 08:20:57;;;;;;;4.95;2.97;;;20.60;46.30;;;;;;4974201;28;20686;-83
2022/01/16 08:23:24;;;;;;;5.35;3.45;;;20.60;46.30;;;;;;4974871;28;20046;-83
2022/01/16 08:25:50;;;;;;;5.00;3.15;;;20.60;46.30;;;;;;4973605;28;20089;-82
2022/01/16 08:28:16;;;;;;;5.00;2.88;;;20.60;46.40;;;;;;4974644;28;20100;-82
2022/01/16 08:30:42;;;;;;;5.05;3.00;;;20.60;46.50;;;;;;4963695;28;20058;-83
2022/01/16 08:33:07;;;;;;;5.78;3.30;;;20.60;46.30;;;;;;4974302;28;20050;-83
2022/01/16 08:35:33;;;;;;;5.13;3.17;;;20.60;46.30;;;;;;4974545;28;20148;-82
2022/01/16 08:38:01;;;;;;;6.05;3.58;;;20.60;46.30;;;;;;4990343;28;20145;-83
2022/01/16 08:40:27;;;;;;;5.93;3.42;;;20.60;46.30;;;;;;4956614;28;20560;-82
2022/01/16 08:42:53;;;;;;;5.13;2.88;;;20.60;46.30;;;;;;4954823;28;20047;-82
2022/01/16 08:45:18;;;;;;;5.28;3.13;;;20.60;46.30;;;;;;4970405;28;20059;-82
2022/01/16 08:47:44;;;;;;;5.38;3.13;;;20.60;46.30;;;;;;4954746;28;20042;-82
2022/01/16 08:50:09;;;;;;;5.40;3.05;;;20.60;46.30;;;;;;4951297;28;20089;-83
2022/01/16 08:52:35;;;;;;;5.20;3.00;;;20.60;46.30;;;;;;4956939;28;20052;-82
2022/01/16 08:55:02;;;;;;;5.18;3.17;;;20.60;46.30;;;;;;4954618;28;20046;-82
2022/01/16 08:57:28;;;;;;;5.93;3.47;;;20.60;46.30;;;;;;4971291;28;20499;-82
2022/01/16 08:59:53;;;;;;;5.20;2.90;;;20.60;46.30;;;;;;4953241;28;20054;-82
2022/01/16 09:02:19;;;;;;;4.80;3.10;;;20.60;46.30;;;;;;4946777;28;20054;-82
2022/01/16 09:04:44;;;;;;;5.25;2.90;;;20.60;46.30;;;;;;4954281;28;20043;-82
2022/01/16 09:07:10;;;;;;;6.05;3.13;;;20.60;46.30;;;;;;4954260;28;20042;-82
2022/01/16 09:09:35;;;;;;;5.55;3.40;;;20.60;46.30;;;;;;4955273;28;20565;-82
2022/01/16 09:12:01;;;;;;;6.50;3.22;;;20.60;46.30;;;;;;4954878;28;20043;-82
2022/01/16 09:14:27;;;;;;;5.15;3.00;;;20.60;46.30;;;;;;4954386;28;20046;-82
2022/01/16 09:16:52;;;;;;;5.57;3.00;;;20.60;46.30;;;;;;4954801;28;20051;-82
2022/01/16 09:19:18;;;;;;;5.30;3.20;;;20.60;46.30;;;;;;4954162;28;20487;-82
2022/01/16 09:21:43;;;;;;;5.50;3.00;;;20.60;46.30;;;;;;4947514;29;20914;-82
2022/01/16 09:24:09;;;;;;;5.65;2.80;;;20.60;46.30;;;;;;4942340;28;20043;-82
2022/01/16 09:26:35;;;;;;;4.95;3.05;;;20.60;46.30;;;;;;4954440;28;20051;-82
2022/01/16 09:29:02;;;;;;;5.68;3.10;;;20.60;46.30;;;;;;4925358;28;20051;-82
2022/01/16 09:31:27;;;;;;;5.40;2.80;;;20.60;46.30;;;;;;4951316;29;20440;-82
2022/01/16 09:33:54;;;;;;;4.90;2.80;;;20.70;46.30;;;;;;4937609;28;20085;-82
2022/01/16 09:36:19;;;;;;;5.55;3.40;;;20.70;46.30;;;;;;4953511;28;20077;-82
2022/01/16 09:38:45;;;;;;;5.35;3.47;;;20.60;46.30;;;;;;4948565;29;20043;-82
2022/01/16 09:41:11;;;;;;;4.95;3.00;;;21.00;46.50;;;;;;4935052;29;20093;-83
2022/01/16 09:43:38;;;;;;;6.15;3.08;;;20.70;46.30;;;;;;4906179;28;20594;-82
2022/01/16 09:46:03;;;;;;;5.50;3.05;;;21.60;46.80;;;;;;4939703;29;20048;-82
2022/01/16 09:48:29;;;;;;;5.80;3.28;;;20.70;46.30;;;;;;4934351;29;20047;-82
2022/01/16 09:50:54;;;;;;;4.70;2.70;;;20.70;46.30;;;;;;4935059;29;20530;-82
2022/01/16 09:53:21;;;;;;;4.80;3.03;;;20.70;46.30;;;;;;4935143;29;20051;-83
2022/01/16 09:55:47;;;;;;;5.72;3.05;;;20.70;46.30;;;;;;4934771;29;20050;-82
2022/01/16 09:58:12;;;;;;;5.80;2.92;;;20.70;46.30;;;;;;4934994;29;20062;-82
2022/01/16 10:00:38;;;;;;;5.28;2.95;;;20.70;46.30;;;;;;4934435;29;20086;-82
2022/01/16 10:03:05;;;;;;;5.30;2.97;;;20.70;46.20;;;;;;4934363;28;20071;-82
2022/01/16 10:05:38;;;;;;;4.65;2.80;;;20.70;46.20;;;;;;4935259;28;20074;-82
2022/01/16 10:08:08;;;;;;;5.38;3.22;;;20.70;46.20;;;;;;4944123;28;20043;-84
2022/01/16 10:10:36;;;;;;;4.82;2.83;;;20.70;46.20;;;;;;4950731;28;20090;-85
2022/01/16 10:13:37;;;;;;;6.45;2.80;;;20.70;46.20;;;;;;4949500;28;20057;-82
2022/01/16 10:16:03;;;;;;;5.95;3.08;;;21.70;46.70;;;;;;4949729;28;20069;-83
2022/01/16 10:18:39;;;;;;;4.95;2.70;;;20.70;46.10;;;;;;4951679;28;20692;-84
2022/01/16 10:21:06;;;;;;;5.18;3.20;;;20.70;46.10;;;;;;4948738;28;20117;-85
2022/01/16 10:23:38;;;;;;;4.53;2.70;;;20.60;46.00;;;;;;4950290;28;20051;-82
2022/01/16 10:26:03;;;;;;;6.45;3.20;;;20.60;46.00;;;;;;4948047;28;20058;-81
2022/01/16 10:28:29;;;;;;;9.30;5.63;;;20.70;46.20;;;;;;4940930;28;20089;-89
2022/01/16 10:30:56;;;;;;;10.05;6.05;;;20.60;46.20;;;;;;4958463;28;20399;-87
2022/01/16 10:33:26;;;;;;;9.30;5.95;;;20.60;46.20;;;;;;4947213;28;20133;-88
2022/01/16 10:35:53;;;;;;;8.05;5.53;;;20.60;46.20;;;;;;4949795;28;20051;-87
2022/01/16 10:38:21;;;;;;;9.80;5.80;;;20.60;46.20;;;;;;4956623;28;20072;-88
2022/01/16 10:40:50;;;;;;;9.90;6.20;;;20.60;46.20;;;;;;4956925;28;20082;-87
2022/01/16 10:43:17;;;;;;;10.20;5.60;;;20.60;46.20;;;;;;4948807;28;20051;-84
2022/01/16 10:45:43;;;;;;;11.32;5.95;;;20.60;46.20;;;;;;4954863;28;20534;-82
2022/01/16 10:48:09;;;;;;;8.95;5.35;;;20.60;46.30;;;;;;4968510;28;20050;-86
2022/01/16 10:50:45;;;;;;;10.20;5.68;;;20.60;46.20;;;;;;4952944;28;20553;-82
2022/01/16 10:53:12;;;;;;;9.10;5.15;;;20.70;46.30;;;;;;4952563;28;20050;-83
2022/01/16 10:55:48;;;;;;;9.27;5.38;;;20.70;46.30;;;;;;4959841;28;20129;-85
2022/01/16 10:58:28;;;;;;;8.65;5.60;;;20.70;46.30;;;;;;4962379;28;20062;-82
2022/01/16 11:00:59;;;;;;;12.95;6.45;;;20.70;46.30;;;;;;4933607;29;20051;-83
2022/01/16 11:03:26;;;;;;;8.05;5.05;;;20.70;46.30;;;;;;4944142;28;20125;-83
2022/01/16 11:05:51;;;;;;;7.80;4.70;;;20.70;46.30;;;;;;4948631;28;20068;-82
2022/01/16 11:08:19;;;;;;;9.65;4.95;;;20.70;46.30;;;;;;4951476;28;20175;-82
2022/01/16 11:10:52;;;;;;;9.70;5.25;;;20.70;46.30;;;;;;4953312;28;20043;-83
2022/01/16 11:13:23;;;;;;;10.20;5.78;;;20.70;46.30;;;;;;4962024;28;20062;-83
2022/01/16 11:15:50;;;;;;;10.00;5.60;;;20.70;46.20;;;;;;4952731;28;20047;-83
2022/01/16 11:18:17;;;;;;;9.90;4.97;;;20.70;46.20;;;;;;4949803;28;20058;-82
2022/01/16 11:20:51;;;;;;;7.60;4.93;;;20.70;46.10;;;;;;4952338;28;20047;-83
2022/01/16 11:25:54;;;;;;;7.30;4.55;;;20.70;46.10;;;;;;4954844;28;20367;-82
2022/01/16 11:28:20;;;;;;;6.88;4.15;;;20.60;46.10;;;;;;4936623;29;20131;-83
2022/01/16 11:30:50;;;;;;;8.02;4.32;;;20.70;46.20;;;;;;4937324;29;20130;-83
2022/01/16 11:33:16;;;;;;;6.10;3.67;;;20.70;46.30;;;;;;4937289;29;20164;-82
2022/01/16 11:35:56;;;;;;;5.78;3.67;;;20.70;46.30;;;;;;4936823;28;20129;-83
2022/01/16 11:38:23;;;;;;;7.22;3.97;;;20.70;46.30;;;;;;4936653;28;20055;-82
2022/01/16 11:40:49;;;;;;;6.22;3.53;;;20.70;46.30;;;;;;4936836;29;20058;-83
2022/01/16 11:43:17;;;;;;;5.75;3.40;;;20.70;46.30;;;;;;4937238;29;20058;-82
2022/01/16 11:45:45;;;;;;;6.47;4.00;;;20.70;46.30;;;;;;4937254;29;20058;-83
2022/01/16 11:48:11;;;;;;;6.32;3.90;;;20.70;46.30;;;;;;4937087;29;20051;-84
2022/01/16 11:50:36;;;;;;;6.43;3.85;;;20.70;46.30;;;;;;4937390;29;20046;-83
2022/01/16 11:53:02;;;;;;;6.15;3.60;;;20.70;46.30;;;;;;4940413;28;20058;-82
2022/01/16 11:55:34;;;;;;;7.18;3.83;;;20.70;46.30;;;;;;4924040;29;20142;-83
2022/01/16 11:58:01;;;;;;;5.68;3.50;;;20.70;46.30;;;;;;4933193;28;20061;-83
2022/01/16 12:00:43;;;;;;;6.22;3.47;;;20.70;46.20;;;;;;4942320;28;20051;-82
2022/01/16 12:03:35;;;;;;;6.57;3.42;;;20.70;46.20;;;;;;4922686;29;20521;-82
2022/01/16 12:06:29;;;;;;;5.82;3.28;;;20.70;46.20;;;;;;4916603;29;20158;-82
2022/01/16 12:08:57;;;;;;;5.82;3.20;;;20.70;46.20;;;;;;4923198;29;20523;-83
2022/01/16 12:11:38;;;;;;;4.65;2.97;;;20.70;46.10;;;;;;4917883;29;20087;-83
2022/01/16 12:14:03;;;;;;;6.20;3.53;;;20.70;46.10;;;;;;4917403;29;20056;-82
2022/01/16 12:16:36;;;;;;;5.80;3.28;;;20.70;46.10;;;;;;4917116;29;20775;-82
2022/01/16 12:19:20;;;;;;;;;;;20.70;46.10;;;;;;4925955;29;20393;-83
2022/01/16 12:21:55;;;;;;;5.40;3.08;;;20.60;46.00;;;;;;4924121;29;19933;-83
2022/01/16 12:24:41;;;;;;;5.15;3.20;;;20.70;46.00;;;;;;4932396;29;20044;-83
2022/01/16 12:27:38;;;;;;;5.05;3.08;;;20.10;45.70;;;;;;4931663;29;20063;-84
2022/01/16 12:30:31;;;;;;;5.55;3.33;;;20.60;45.90;;;;;;4909450;29;20040;-83
2022/01/16 12:33:03;;;;;;;5.43;3.60;;;20.60;45.90;;;;;;4935294;29;20701;-83
2022/01/16 12:35:41;;;;;;;4.75;3.05;;;20.60;45.90;;;;;;4936137;29;20070;-83
2022/01/16 12:38:19;;;;;;;4.93;2.80;;;20.60;46.00;;;;;;4935818;29;20077;-83
2022/01/16 12:40:46;;;;;;;5.15;3.25;;;20.60;46.00;;;;;;4944310;28;20062;-84
2022/01/16 12:43:17;;;;;;;5.45;3.15;;;21.50;46.50;;;;;;4951537;28;20587;-83
2022/01/16 12:45:43;;;;;;;4.85;2.88;;;20.60;46.00;;;;;;4951833;28;20533;-83
2022/01/16 12:48:08;;;;;;;4.97;2.88;;;20.60;46.00;;;;;;4951883;28;20164;-83
2022/01/16 12:50:34;;;;;;;4.50;2.80;;;20.60;46.00;;;;;;4932116;28;20732;-83
2022/01/16 12:53:00;;;;;;;5.70;3.10;;;20.60;46.10;;;;;;4939635;28;20083;-83
2022/01/16 12:55:30;;;;;;;4.57;2.92;;;20.60;46.10;;;;;;4944370;28;20521;-83
2022/01/16 12:58:17;;;;;;;4.80;2.72;;;20.50;46.00;;;;;;4942374;28;20044;-83
2022/01/16 13:00:59;;;;;;;4.78;2.75;;;20.60;46.10;;;;;;4949312;28;20056;-83
2022/01/16 13:03:25;;;;;;;5.03;3.08;;;20.60;46.80;;;;;;4951686;28;20489;-83
2022/01/16 13:05:51;;;;;;;5.47;2.88;;;20.60;46.10;;;;;;4953576;28;20050;-83
2022/01/16 13:08:16;;;;;;;4.78;2.78;;;20.60;46.10;;;;;;4952832;28;20050;-83
2022/01/16 13:10:42;;;;;;;4.60;2.78;;;20.60;46.20;;;;;;4949012;28;20050;-83
2022/01/16 13:13:11;;;;;;;4.78;2.70;;;20.60;46.20;;;;;;4954211;28;20042;-83
2022/01/16 13:15:36;;;;;;;3.90;2.47;;;20.60;46.20;;;;;;4954378;28;20503;-83
2022/01/16 13:18:09;;;;;;;4.65;2.58;;;20.60;46.20;;;;;;4970014;28;20058;-83
2022/01/16 13:20:34;;;;;;;4.63;2.67;;;20.60;46.20;;;;;;4952331;28;20134;-83
2022/01/16 13:23:00;;;;;;;4.32;2.22;;;20.60;46.20;;;;;;4606666;28;10002984;-83
2022/01/16 13:25:26;;;;;;;4.40;2.40;;;20.60;46.20;;;;;;4939840;29;20407;-83
2022/01/16 13:27:51;;;;;;;4.60;2.40;;;20.60;46.20;;;;;;4934341;29;20039;-83
2022/01/16 13:30:26;;;;;;;4.15;2.53;;;20.60;46.20;;;;;;4934215;28;20051;-82
2022/01/16 13:32:52;;;;;;;4.15;2.42;;;20.70;46.30;;;;;;4905119;29;20046;-82
2022/01/16 13:35:21;;;;;;;4.28;2.63;;;20.70;46.30;;;;;;4915423;29;20067;-82
2022/01/16 13:37:47;;;;;;;4.70;2.80;;;20.60;46.20;;;;;;4923347;28;20065;-83
2022/01/16 13:40:17;;;;;;;3.97;2.17;;;20.70;46.30;;;;;;4935054;29;20047;-83